createdAt,value
2022-09-14T00:00:41.432Z,9.70
2022-09-14T00:02:46.350Z,9.00
2022-09-14T00:04:51.233Z,10.80
2022-09-14T00:06:55.972Z,8.20
2022-09-14T00:09:02.245Z,9.00
2022-09-14T00:11:10.283Z,9.90
2022-09-14T00:13:16.748Z,9.50
2022-09-14T00:15:21.657Z,9.20
2022-09-14T00:17:26.793Z,10.30
2022-09-14T00:19:31.460Z,11.20
2022-09-14T00:21:38.258Z,9.60
2022-09-14T00:23:43.452Z,9.70
2022-09-14T00:25:48.408Z,10.60
2022-09-14T00:27:53.319Z,10.80
2022-09-14T00:29:58.547Z,9.60
2022-09-14T00:32:04.001Z,10.40
2022-09-14T00:34:13.120Z,8.50
2022-09-14T00:36:21.028Z,7.90
2022-09-14T00:38:27.581Z,8.80
2022-09-14T00:40:35.585Z,8.70
2022-09-14T00:42:40.721Z,9.20
2022-09-14T00:45:05.861Z,10.80
2022-09-14T00:47:12.223Z,8.20
2022-09-14T00:49:21.145Z,8.20
2022-09-14T00:51:27.342Z,10.10
2022-09-14T00:53:35.012Z,8.10
2022-09-14T00:55:39.902Z,8.30
2022-09-14T00:57:47.659Z,8.90
2022-09-14T00:59:53.771Z,10.50
2022-09-14T01:01:58.625Z,9.40
2022-09-14T01:04:04.817Z,8.30
2022-09-14T01:06:16.771Z,9.00
2022-09-14T01:08:53.282Z,8.30
2022-09-14T01:11:20.185Z,7.40
2022-09-14T01:13:33.963Z,9.20
2022-09-14T01:15:48.029Z,9.50
2022-09-14T01:18:00.943Z,10.20
2022-09-14T01:20:17.553Z,7.80
2022-09-14T01:22:27.395Z,9.20
2022-09-14T01:24:43.304Z,8.00
2022-09-14T01:27:15.173Z,8.20
2022-09-14T01:29:24.515Z,8.50
2022-09-14T01:31:36.621Z,8.80
2022-09-14T01:33:47.822Z,8.10
2022-09-14T01:35:55.938Z,7.20
2022-09-14T01:38:04.898Z,7.70
2022-09-14T01:40:16.570Z,9.70
2022-09-14T01:42:25.042Z,8.10
2022-09-14T01:44:34.828Z,10.10
2022-09-14T01:46:44.865Z,7.40
2022-09-14T01:48:54.578Z,8.10
2022-09-14T01:51:01.408Z,7.20
2022-09-14T01:53:14.523Z,7.50
2022-09-14T01:55:25.002Z,8.40
2022-09-14T01:57:35.595Z,7.50
2022-09-14T01:59:45.064Z,8.90
2022-09-14T02:01:53.923Z,7.50
2022-09-14T02:04:02.810Z,8.90
2022-09-14T02:06:16.208Z,8.20
2022-09-14T02:08:21.363Z,7.40
2022-09-14T02:10:27.845Z,8.10
2022-09-14T02:12:32.809Z,8.50
2022-09-14T02:14:37.797Z,7.30
2022-09-14T02:16:42.840Z,8.50
2022-09-14T02:18:47.564Z,8.20
2022-09-14T02:20:57.515Z,7.90
2022-09-14T02:23:02.854Z,6.70
2022-09-14T02:25:08.975Z,7.20
2022-09-14T02:27:13.833Z,8.20
2022-09-14T02:29:18.779Z,8.30
2022-09-14T02:31:33.739Z,6.90
2022-09-14T02:33:45.900Z,7.00
2022-09-14T02:35:54.579Z,9.30
2022-09-14T02:38:08.609Z,7.70
2022-09-14T02:40:20.835Z,8.80
2022-09-14T02:42:32.840Z,10.00
2022-09-14T02:44:47.519Z,9.00
2022-09-14T02:46:59.032Z,7.70
2022-09-14T02:49:12.912Z,7.40
2022-09-14T02:51:27.429Z,7.20
2022-09-14T02:53:39.939Z,6.50
2022-09-14T02:55:48.811Z,6.90
2022-09-14T02:58:05.552Z,7.00
2022-09-14T03:00:12.022Z,6.20
2022-09-14T03:02:16.821Z,9.00
2022-09-14T03:04:21.711Z,6.80
2022-09-14T03:06:26.478Z,7.90
2022-09-14T03:08:31.277Z,8.60
2022-09-14T03:10:36.587Z,6.90
2022-09-14T03:12:41.255Z,6.60
2022-09-14T03:14:46.021Z,6.70
2022-09-14T03:16:50.713Z,6.20
2022-09-14T03:18:55.367Z,6.30
2022-09-14T03:21:06.142Z,7.10
2022-09-14T03:23:11.243Z,8.60
2022-09-14T03:25:16.760Z,6.80
2022-09-14T03:27:21.411Z,6.30
2022-09-14T03:29:26.228Z,6.20
2022-09-14T03:31:31.324Z,7.20
2022-09-14T03:33:36.527Z,7.00
2022-09-14T03:35:41.197Z,8.20
2022-09-14T03:37:46.717Z,8.00
2022-09-14T03:39:51.525Z,7.10
2022-09-14T03:41:56.200Z,6.80
2022-09-14T03:44:00.987Z,17.90
2022-09-14T03:46:09.052Z,8.30
2022-09-14T03:48:13.758Z,7.00
2022-09-14T03:50:19.604Z,6.80
2022-09-14T03:52:25.386Z,6.60
2022-09-14T03:54:30.187Z,10.50
2022-09-14T03:56:34.893Z,8.30
2022-09-14T03:58:39.835Z,6.80
2022-09-14T04:00:44.532Z,7.30
2022-09-14T04:02:49.696Z,6.20
2022-09-14T04:04:54.352Z,7.40
2022-09-14T04:06:59.096Z,7.60
2022-09-14T04:09:03.776Z,8.20
2022-09-14T04:11:13.924Z,8.00
2022-09-14T04:13:18.627Z,7.50
2022-09-14T04:15:23.320Z,7.30
2022-09-14T04:17:28.164Z,8.80
2022-09-14T04:19:32.801Z,6.90
2022-09-14T04:21:37.417Z,8.00
2022-09-14T04:24:03.491Z,7.10
2022-09-14T04:26:13.574Z,7.50
2022-09-14T04:28:20.411Z,6.90
2022-09-14T04:30:25.697Z,7.70
2022-09-14T04:32:34.177Z,7.70
2022-09-14T04:34:39.332Z,8.00
2022-09-14T04:36:44.121Z,9.80
2022-09-14T04:38:52.522Z,8.20
2022-09-14T04:40:57.954Z,7.20
2022-09-14T04:43:02.612Z,8.40
2022-09-14T04:45:08.790Z,14.50
2022-09-14T04:47:14.069Z,21.70
2022-09-14T04:49:19.077Z,14.00
2022-09-14T04:51:25.529Z,8.90
2022-09-14T04:53:30.318Z,9.20
2022-09-14T04:55:35.043Z,21.50
2022-09-14T04:57:39.753Z,10.90
2022-09-14T04:59:44.500Z,9.00
2022-09-14T05:01:49.890Z,11.10
2022-09-14T05:03:55.216Z,9.20
2022-09-14T05:06:04.389Z,10.80
2022-09-14T05:08:09.038Z,9.20
2022-09-14T05:10:13.800Z,10.30
2022-09-14T05:12:18.499Z,12.10
2022-09-14T05:14:23.343Z,21.40
2022-09-14T05:16:29.631Z,13.40
2022-09-14T05:18:34.398Z,10.10
2022-09-14T05:20:39.270Z,11.00
2022-09-14T05:22:43.984Z,9.70
2022-09-14T05:24:48.638Z,8.50
2022-09-14T05:26:57.090Z,9.30
2022-09-14T05:29:05.411Z,7.70
2022-09-14T05:31:11.728Z,7.40
2022-09-14T05:33:16.537Z,7.50
2022-09-14T05:35:21.423Z,9.00
2022-09-14T05:37:26.265Z,8.00
2022-09-14T05:39:31.115Z,7.70
2022-09-14T05:41:36.527Z,8.50
2022-09-14T05:43:41.745Z,7.60
2022-09-14T05:45:46.463Z,7.80
2022-09-14T05:47:51.210Z,9.70
2022-09-14T05:49:56.198Z,9.40
2022-09-14T05:52:01.121Z,8.10
2022-09-14T05:54:06.017Z,8.40
2022-09-14T05:56:13.594Z,9.40
2022-09-14T05:58:18.340Z,8.30
2022-09-14T06:00:23.653Z,9.90
2022-09-14T06:02:28.505Z,10.10
2022-09-14T06:04:33.218Z,7.90
2022-09-14T06:06:38.049Z,8.80
2022-09-14T06:08:43.463Z,8.80
2022-09-14T06:10:48.150Z,7.90
2022-09-14T06:12:55.486Z,10.40
2022-09-14T06:15:00.476Z,8.10
2022-09-14T06:17:05.179Z,8.50
2022-09-14T06:19:10.584Z,7.90
2022-09-14T06:21:17.369Z,8.70
2022-09-14T06:23:22.042Z,8.00
2022-09-14T06:25:26.767Z,8.30
2022-09-14T06:27:31.436Z,9.20
2022-09-14T06:29:36.166Z,9.40
2022-09-14T06:31:40.844Z,8.10
2022-09-14T06:33:50.042Z,8.20
2022-09-14T06:35:58.890Z,8.00
2022-09-14T06:38:03.561Z,10.20
2022-09-14T06:40:09.650Z,9.70
2022-09-14T06:42:17.164Z,8.30
2022-09-14T06:44:25.627Z,8.90
2022-09-14T06:46:32.327Z,9.00
2022-09-14T06:48:38.979Z,8.40
2022-09-14T06:50:43.758Z,7.90
2022-09-14T06:52:48.412Z,9.50
2022-09-14T06:54:53.169Z,8.30
2022-09-14T06:56:57.993Z,9.30
2022-09-14T06:59:03.483Z,11.00
2022-09-14T07:01:11.090Z,9.10
2022-09-14T07:03:15.871Z,9.10
2022-09-14T07:05:20.549Z,10.60
2022-09-14T07:07:25.399Z,11.80
2022-09-14T07:09:30.117Z,12.40
2022-09-14T07:11:35.561Z,12.10
2022-09-14T07:13:40.329Z,11.30
2022-09-14T07:15:50.533Z,10.10
2022-09-14T07:17:55.259Z,12.10
2022-09-14T07:19:59.995Z,12.10
2022-09-14T07:22:04.751Z,11.70
2022-09-14T07:24:10.610Z,11.90
2022-09-14T07:26:18.563Z,11.40
2022-09-14T07:28:23.380Z,13.80
2022-09-14T07:30:28.237Z,10.10
2022-09-14T07:32:33.074Z,14.30
2022-09-14T07:34:37.808Z,14.00
2022-09-14T07:36:42.919Z,12.90
2022-09-14T07:38:52.566Z,14.70
2022-09-14T07:41:00.580Z,12.90
2022-09-14T07:43:05.293Z,14.10
2022-09-14T07:45:11.055Z,12.80
2022-09-14T07:47:15.753Z,13.40
2022-09-14T07:49:20.377Z,13.50
2022-09-14T07:51:26.008Z,13.80
2022-09-14T07:53:30.980Z,12.30
2022-09-14T07:55:38.099Z,13.10
2022-09-14T07:57:55.565Z,11.40
2022-09-14T08:00:01.492Z,13.20
2022-09-14T08:02:16.524Z,12.70
2022-09-14T08:04:21.442Z,14.50
2022-09-14T08:06:26.845Z,13.20
2022-09-14T08:08:33.710Z,11.90
2022-09-14T08:10:38.386Z,11.50
2022-09-14T08:12:43.081Z,15.20
2022-09-14T08:14:47.794Z,12.80
2022-09-14T08:16:52.586Z,13.10
2022-09-14T08:18:59.519Z,12.90
2022-09-14T08:21:07.523Z,11.30
2022-09-14T08:23:12.165Z,11.70
2022-09-14T08:25:16.874Z,11.70
2022-09-14T08:27:21.468Z,10.70
2022-09-14T08:29:26.398Z,12.30
2022-09-14T08:31:31.127Z,11.90
2022-09-14T08:33:39.400Z,11.60
2022-09-14T08:35:57.883Z,14.60
2022-09-14T08:38:02.964Z,12.10
2022-09-14T08:40:10.673Z,10.70
2022-09-14T08:42:18.289Z,11.10
2022-09-14T08:44:27.135Z,10.60
2022-09-14T08:46:34.480Z,13.40
2022-09-14T08:48:45.450Z,10.40
2022-09-14T08:50:51.626Z,10.50
2022-09-14T08:52:56.747Z,12.10
2022-09-14T08:55:14.505Z,11.90
2022-09-14T08:57:26.408Z,11.40
2022-09-14T08:59:48.552Z,13.60
2022-09-14T09:02:03.136Z,15.10
2022-09-14T09:04:33.533Z,11.80
2022-09-14T09:06:49.042Z,10.60
2022-09-14T09:09:03.040Z,13.10
2022-09-14T09:11:14.653Z,12.10
2022-09-14T09:13:26.686Z,10.00
2022-09-14T09:15:35.097Z,11.40
2022-09-14T09:17:44.535Z,12.40
2022-09-14T09:19:59.153Z,12.20
2022-09-14T09:22:06.725Z,13.50
2022-09-14T09:24:32.371Z,14.80
2022-09-14T09:26:41.600Z,12.10
2022-09-14T09:28:49.348Z,13.80
2022-09-14T09:30:57.441Z,16.50
2022-09-14T09:33:07.584Z,14.70
2022-09-14T09:35:27.695Z,17.10
2022-09-14T09:37:42.333Z,14.40
2022-09-14T09:39:47.480Z,14.20
2022-09-14T09:41:55.995Z,14.40
2022-09-14T09:44:03.947Z,13.20
2022-09-14T09:46:09.459Z,12.60
2022-09-14T09:48:16.178Z,13.40
2022-09-14T09:50:22.779Z,12.80
2022-09-14T09:52:27.515Z,13.70
2022-09-14T09:54:33.554Z,12.90
2022-09-14T09:56:40.962Z,11.50
2022-09-14T09:58:45.676Z,13.50
2022-09-14T10:00:57.402Z,12.90
2022-09-14T10:03:26.756Z,12.30
2022-09-14T10:05:31.783Z,12.00
2022-09-14T10:07:53.433Z,14.40
2022-09-14T10:10:05.138Z,12.80
2022-09-14T10:12:15.817Z,12.40
2022-09-14T10:14:27.212Z,12.60
2022-09-14T10:16:40.748Z,12.10
2022-09-14T10:18:49.240Z,12.60
2022-09-14T10:21:10.576Z,12.20
2022-09-14T10:23:25.220Z,12.00
2022-09-14T10:25:29.995Z,13.20
2022-09-14T10:27:41.026Z,10.90
2022-09-14T10:29:47.174Z,11.30
2022-09-14T10:31:52.158Z,10.00
2022-09-14T10:33:58.185Z,11.00
2022-09-14T10:36:09.857Z,11.10
2022-09-14T10:38:32.507Z,11.40
2022-09-14T10:40:42.436Z,10.30
2022-09-14T10:42:57.438Z,10.60
2022-09-14T10:45:14.315Z,9.60
2022-09-14T10:47:36.095Z,10.50
2022-09-14T10:49:56.852Z,12.00
2022-09-14T10:52:15.922Z,12.80
2022-09-14T10:54:41.203Z,11.90
2022-09-14T10:57:00.158Z,12.80
2022-09-14T10:59:23.137Z,11.80
2022-09-14T11:01:50.301Z,12.60
2022-09-14T11:04:08.784Z,14.10
2022-09-14T11:06:26.566Z,13.30
2022-09-14T11:08:39.390Z,13.00
2022-09-14T11:11:03.239Z,13.60
2022-09-14T11:13:26.859Z,13.00
2022-09-14T11:15:40.076Z,14.60
2022-09-14T11:17:58.185Z,15.20
2022-09-14T11:20:14.114Z,13.80
2022-09-14T11:22:28.885Z,14.40
2022-09-14T11:24:41.900Z,17.10
2022-09-14T11:26:55.003Z,15.10
2022-09-14T11:29:12.554Z,15.40
2022-09-14T11:31:22.050Z,16.40
2022-09-14T11:33:34.102Z,15.70
2022-09-14T11:35:42.717Z,14.30
2022-09-14T11:37:53.860Z,13.70
2022-09-14T11:40:05.389Z,13.90
2022-09-14T11:42:13.997Z,14.00
2022-09-14T11:44:22.618Z,13.90
2022-09-14T11:46:31.837Z,14.20
2022-09-14T11:48:44.035Z,11.90
2022-09-14T11:50:49.984Z,12.70
2022-09-14T11:53:02.975Z,12.30
2022-09-14T11:55:15.979Z,15.80
2022-09-14T11:57:24.150Z,13.60
2022-09-14T11:59:49.004Z,11.00
2022-09-14T12:01:53.693Z,11.40
2022-09-14T12:04:10.679Z,11.10
2022-09-14T12:06:46.804Z,13.00
2022-09-14T12:08:51.541Z,10.50
2022-09-14T12:11:05.593Z,9.40
2022-09-14T12:13:22.443Z,10.20
2022-09-14T12:15:43.797Z,9.60
2022-09-14T12:17:49.335Z,10.20
2022-09-14T12:19:59.352Z,10.80
2022-09-14T12:22:33.886Z,9.90
2022-09-14T12:24:40.624Z,10.20
2022-09-14T12:26:45.820Z,9.00
2022-09-14T12:28:53.248Z,9.20
2022-09-14T12:31:38.666Z,10.10
2022-09-14T12:33:58.061Z,10.00
2022-09-14T12:36:03.727Z,9.70
2022-09-14T12:38:40.620Z,9.00
2022-09-14T12:40:45.728Z,8.10
2022-09-14T12:42:50.533Z,11.20
2022-09-14T12:44:55.506Z,8.50
2022-09-14T12:47:20.451Z,8.50
2022-09-14T12:49:34.562Z,8.40
2022-09-14T12:51:47.004Z,9.70
2022-09-14T12:54:02.344Z,8.60
2022-09-14T12:56:15.678Z,9.10
2022-09-14T12:58:34.014Z,11.00
2022-09-14T13:00:53.449Z,10.20
2022-09-14T13:03:14.969Z,10.20
2022-09-14T13:05:23.862Z,10.10
2022-09-14T13:07:32.522Z,9.60
2022-09-14T13:09:37.278Z,8.70
2022-09-14T13:11:42.563Z,8.80
2022-09-14T13:13:47.854Z,10.20
2022-09-14T13:15:58.753Z,9.40
2022-09-14T13:18:05.812Z,9.80
2022-09-14T13:20:19.106Z,9.00
2022-09-14T13:22:26.395Z,9.70
2022-09-14T13:24:36.848Z,8.40
2022-09-14T13:26:43.538Z,9.30
2022-09-14T13:28:50.510Z,9.40
2022-09-14T13:31:00.550Z,8.70
2022-09-14T13:33:06.899Z,9.50
2022-09-14T13:35:24.787Z,8.80
2022-09-14T13:37:29.782Z,10.20
2022-09-14T13:39:37.364Z,9.20
2022-09-14T13:41:45.327Z,10.20
2022-09-14T13:43:52.172Z,10.70
2022-09-14T13:45:57.512Z,9.30
2022-09-14T13:48:04.200Z,10.80
2022-09-14T13:50:12.617Z,10.20
2022-09-14T13:52:38.920Z,8.70
2022-09-14T13:54:48.664Z,7.60
2022-09-14T13:57:13.102Z,9.60
2022-09-14T13:59:24.085Z,10.50
2022-09-14T14:01:30.183Z,9.90
2022-09-14T14:03:37.189Z,8.40
2022-09-14T14:05:43.477Z,8.90
2022-09-14T14:07:48.405Z,8.50
2022-09-14T14:09:55.329Z,8.80
2022-09-14T14:12:00.169Z,7.40
2022-09-14T14:14:20.452Z,7.80
2022-09-14T14:16:26.153Z,7.10
2022-09-14T14:18:41.689Z,10.00
2022-09-14T14:20:46.511Z,9.30
2022-09-14T14:22:59.172Z,8.30
2022-09-14T14:25:20.062Z,7.90
2022-09-14T14:27:31.037Z,9.20
2022-09-14T14:29:35.849Z,7.60
2022-09-14T14:31:40.562Z,7.60
2022-09-14T14:33:50.839Z,7.60
2022-09-14T14:35:56.867Z,8.40
2022-09-14T14:38:01.542Z,8.70
2022-09-14T14:40:08.295Z,11.70
2022-09-14T14:42:14.897Z,10.30
2022-09-14T14:44:22.376Z,9.70
2022-09-14T14:46:27.218Z,7.70
2022-09-14T14:48:31.904Z,7.40
2022-09-14T14:50:36.641Z,8.90
2022-09-14T14:52:41.380Z,9.50
2022-09-14T14:54:46.061Z,7.60
2022-09-14T14:56:52.058Z,6.90
2022-09-14T14:59:01.421Z,8.00
2022-09-14T15:01:07.291Z,7.30
2022-09-14T15:03:12.211Z,9.20
2022-09-14T15:05:17.837Z,7.90
2022-09-14T15:07:22.547Z,7.60
2022-09-14T15:09:29.228Z,8.70
2022-09-14T15:11:38.828Z,6.90
2022-09-14T15:13:43.837Z,7.50
2022-09-14T15:15:48.636Z,7.70
2022-09-14T15:17:54.024Z,7.70
2022-09-14T15:19:58.807Z,8.40
2022-09-14T15:22:03.551Z,8.20
2022-09-14T15:24:09.133Z,8.30
2022-09-14T15:26:14.016Z,6.60
2022-09-14T15:28:18.672Z,7.50
2022-09-14T15:30:23.538Z,6.80
2022-09-14T15:32:28.374Z,6.90
2022-09-14T15:34:33.125Z,7.70
2022-09-14T15:36:39.970Z,7.90
2022-09-14T15:38:44.734Z,7.60
2022-09-14T15:40:49.400Z,7.30
2022-09-14T15:42:54.948Z,9.50
2022-09-14T15:44:59.737Z,9.00
2022-09-14T15:47:05.190Z,6.90
2022-09-14T15:49:12.361Z,7.80
2022-09-14T15:51:17.254Z,7.90
2022-09-14T15:53:22.056Z,10.20
2022-09-14T15:55:26.976Z,8.70
2022-09-14T15:57:32.118Z,7.50
2022-09-14T15:59:37.371Z,6.80
2022-09-14T16:01:42.293Z,8.20
2022-09-14T16:03:48.163Z,7.50
2022-09-14T16:05:53.898Z,8.30
2022-09-14T16:07:59.123Z,8.20
2022-09-14T16:10:04.516Z,7.10
2022-09-14T16:12:11.264Z,7.50
2022-09-14T16:14:16.017Z,8.10
2022-09-14T16:16:21.737Z,7.60
2022-09-14T16:18:28.274Z,7.40
2022-09-14T16:20:34.958Z,9.10
2022-09-14T16:22:39.695Z,7.60
2022-09-14T16:24:44.676Z,10.60
2022-09-14T16:26:49.363Z,9.60
2022-09-14T16:28:54.963Z,9.70
2022-09-14T16:31:08.087Z,11.90
2022-09-14T16:33:12.827Z,10.50
2022-09-14T16:35:17.580Z,10.90
2022-09-14T16:37:22.228Z,8.20
2022-09-14T16:39:28.565Z,9.20
2022-09-14T16:41:33.791Z,8.10
2022-09-14T16:43:38.749Z,9.10
2022-09-14T16:45:43.536Z,9.80
2022-09-14T16:47:48.387Z,11.50
2022-09-14T16:49:53.474Z,10.40
2022-09-14T16:51:58.439Z,9.30
2022-09-14T16:54:03.522Z,8.20
2022-09-14T16:56:10.488Z,9.20
2022-09-14T16:58:15.225Z,9.50
2022-09-14T17:00:20.383Z,10.30
2022-09-14T17:02:25.253Z,10.90
2022-09-14T17:04:30.108Z,12.20
2022-09-14T17:06:35.552Z,8.90
2022-09-14T17:08:43.815Z,8.40
2022-09-14T17:10:51.133Z,9.50
2022-09-14T17:12:55.822Z,8.80
2022-09-14T17:15:00.650Z,8.90
2022-09-14T17:17:05.496Z,8.40
2022-09-14T17:19:11.270Z,10.20
2022-09-14T17:21:17.822Z,9.30
2022-09-14T17:23:22.610Z,8.90
2022-09-14T17:25:27.295Z,9.10
2022-09-14T17:27:32.001Z,8.20
2022-09-14T17:29:36.642Z,8.20
2022-09-14T17:31:43.012Z,9.20
2022-09-14T17:33:48.090Z,7.90
2022-09-14T17:35:55.536Z,9.90
2022-09-14T17:38:00.292Z,9.10
2022-09-14T17:40:06.372Z,8.80
2022-09-14T17:42:11.219Z,9.10
2022-09-14T17:44:16.077Z,9.40
2022-09-14T17:46:22.647Z,9.60
2022-09-14T17:48:31.739Z,11.40
2022-09-14T17:50:40.419Z,12.40
2022-09-14T17:52:45.135Z,11.30
2022-09-14T17:54:49.791Z,16.10
2022-09-14T17:56:54.502Z,11.00
2022-09-14T17:59:04.558Z,11.50
2022-09-14T18:01:11.766Z,12.00
2022-09-14T18:03:16.591Z,11.10
2022-09-14T18:05:22.019Z,16.10
2022-09-14T18:07:26.943Z,12.80
2022-09-14T18:09:31.925Z,11.30
2022-09-14T18:11:37.419Z,13.80
2022-09-14T18:13:43.535Z,14.40
2022-09-14T18:15:48.609Z,14.10
2022-09-14T18:17:53.690Z,13.20
2022-09-14T18:19:58.762Z,12.80
2022-09-14T18:22:03.913Z,13.80
2022-09-14T18:24:10.209Z,14.30
2022-09-14T18:26:15.337Z,14.70
2022-09-14T18:28:20.174Z,12.10
2022-09-14T18:30:25.091Z,12.00
2022-09-14T18:32:30.149Z,12.80
2022-09-14T18:34:35.350Z,12.60
2022-09-14T18:36:40.771Z,13.10
2022-09-14T18:38:46.357Z,13.20
2022-09-14T18:40:52.090Z,12.10
2022-09-14T18:42:57.149Z,11.50
2022-09-14T18:45:02.319Z,13.20
2022-09-14T18:47:07.752Z,15.00
2022-09-14T18:49:13.243Z,12.40
2022-09-14T18:51:18.806Z,10.80
2022-09-14T18:53:24.103Z,10.90
2022-09-14T18:55:29.343Z,10.80
2022-09-14T18:57:34.435Z,12.70
2022-09-14T18:59:39.617Z,18.30
2022-09-14T19:01:45.078Z,12.60
2022-09-14T19:03:50.578Z,10.90
2022-09-14T19:05:55.661Z,9.10
2022-09-14T19:08:01.622Z,10.60
2022-09-14T19:10:11.460Z,11.00
2022-09-14T19:12:17.052Z,12.30
2022-09-14T19:14:23.232Z,14.70
2022-09-14T19:16:29.582Z,12.50
2022-09-14T19:18:35.987Z,13.50
2022-09-14T19:21:05.328Z,13.40
2022-09-14T19:23:08.633Z,13.10
2022-09-14T19:25:14.576Z,15.80
2022-09-14T19:27:20.065Z,13.20
2022-09-14T19:29:26.484Z,14.30
2022-09-14T19:31:32.635Z,11.60
2022-09-14T19:33:43.228Z,11.60
2022-09-14T19:35:50.676Z,9.60
2022-09-14T19:37:57.723Z,10.70
2022-09-14T19:40:03.754Z,10.40
2022-09-14T19:42:09.252Z,8.70
2022-09-14T19:44:15.319Z,9.30
2022-09-14T19:46:22.573Z,9.30
2022-09-14T19:48:28.443Z,8.80
2022-09-14T19:50:33.772Z,10.10
2022-09-14T19:52:39.148Z,8.70
2022-09-14T19:54:44.474Z,8.70
2022-09-14T19:56:50.779Z,11.00
2022-09-14T19:58:58.524Z,8.70
2022-09-14T20:01:06.780Z,10.10
2022-09-14T20:03:11.799Z,7.50
2022-09-14T20:05:17.090Z,9.30
2022-09-14T20:07:22.160Z,8.20
2022-09-14T20:09:27.469Z,7.70
2022-09-14T20:11:33.847Z,8.50
2022-09-14T20:13:39.510Z,8.50
2022-09-14T20:15:44.488Z,7.60
2022-09-14T20:17:53.342Z,8.10
2022-09-14T20:19:58.581Z,8.40
2022-09-14T20:22:03.614Z,8.60
2022-09-14T20:24:16.535Z,6.00
2022-09-14T20:26:22.557Z,8.00
2022-09-14T20:28:28.124Z,5.80
2022-09-14T20:30:32.760Z,7.20
2022-09-14T20:32:37.402Z,7.70
2022-09-14T20:34:42.122Z,8.10
2022-09-14T20:36:47.055Z,7.20
2022-09-14T20:38:53.274Z,6.60
2022-09-14T20:40:59.999Z,6.90
2022-09-14T20:43:04.625Z,7.00
2022-09-14T20:45:10.860Z,6.10
2022-09-14T20:47:15.471Z,9.10
2022-09-14T20:49:22.325Z,7.20
2022-09-14T20:51:27.295Z,5.90
2022-09-14T20:53:34.754Z,6.70
2022-09-14T20:55:39.495Z,5.20
2022-09-14T20:57:44.210Z,5.90
2022-09-14T20:59:48.952Z,7.00
2022-09-14T21:01:53.929Z,6.30
2022-09-14T21:04:04.373Z,7.40
2022-09-14T21:06:11.080Z,7.50
2022-09-14T21:08:15.822Z,5.90
2022-09-14T21:10:20.832Z,7.10
2022-09-14T21:12:25.555Z,6.30
2022-09-14T21:14:30.655Z,7.60
2022-09-14T21:16:38.319Z,6.50
2022-09-14T21:18:43.896Z,9.20
2022-09-14T21:20:48.623Z,7.50
2022-09-14T21:22:53.529Z,8.00
2022-09-14T21:24:58.209Z,7.00
2022-09-14T21:27:02.917Z,6.40
2022-09-14T21:29:09.443Z,7.20
2022-09-14T21:31:18.991Z,6.40
2022-09-14T21:33:23.727Z,6.50
2022-09-14T21:35:33.460Z,6.60
2022-09-14T21:37:44.501Z,7.30
2022-09-14T21:39:49.288Z,5.70
2022-09-14T21:41:58.682Z,7.80
2022-09-14T21:44:04.498Z,5.40
2022-09-14T21:46:10.228Z,5.30
2022-09-14T21:48:15.079Z,5.40
2022-09-14T21:50:19.868Z,6.00
2022-09-14T21:52:24.586Z,5.50
2022-09-14T21:54:29.517Z,5.40
2022-09-14T21:56:36.380Z,5.60
2022-09-14T21:58:42.156Z,5.50
2022-09-14T22:00:46.908Z,5.30
2022-09-14T22:02:51.585Z,4.00
2022-09-14T22:04:56.341Z,5.10
2022-09-14T22:07:01.025Z,5.00
2022-09-14T22:09:05.999Z,3.80
2022-09-14T22:11:12.976Z,4.70
2022-09-14T22:13:18.008Z,6.00
2022-09-14T22:15:22.721Z,4.60
2022-09-14T22:17:27.385Z,3.70
2022-09-14T22:19:33.309Z,3.90
2022-09-14T22:21:39.352Z,5.20
2022-09-14T22:23:48.126Z,4.80
2022-09-14T22:25:53.284Z,4.30
2022-09-14T22:27:58.035Z,3.30
2022-09-14T22:30:02.860Z,3.60
2022-09-14T22:32:08.168Z,2.80
2022-09-14T22:34:13.889Z,4.00
2022-09-14T22:36:22.258Z,3.80
2022-09-14T22:38:29.649Z,4.70
2022-09-14T22:40:34.358Z,4.50
2022-09-14T22:42:39.173Z,4.20
2022-09-14T22:44:43.938Z,3.40
2022-09-14T22:46:48.728Z,4.30
2022-09-14T22:48:54.098Z,4.00
2022-09-14T22:51:00.377Z,4.60
2022-09-14T22:53:05.121Z,4.00
2022-09-14T22:55:10.419Z,3.60
2022-09-14T22:57:15.118Z,3.40
2022-09-14T22:59:19.848Z,4.20
2022-09-14T23:01:26.541Z,3.80
2022-09-14T23:03:31.369Z,4.00
2022-09-14T23:05:37.150Z,3.70
2022-09-14T23:07:41.948Z,5.30
2022-09-14T23:09:46.773Z,3.70
2022-09-14T23:11:51.973Z,4.30
2022-09-14T23:13:56.865Z,3.80
2022-09-14T23:16:01.780Z,4.20
2022-09-14T23:18:07.176Z,4.20
2022-09-14T23:20:12.145Z,3.90
2022-09-14T23:22:17.940Z,4.00
2022-09-14T23:24:23.072Z,4.60
2022-09-14T23:26:28.418Z,5.90
2022-09-14T23:28:33.885Z,4.40
2022-09-14T23:30:39.126Z,4.30
2022-09-14T23:32:43.853Z,4.00
2022-09-14T23:34:48.855Z,5.40
2022-09-14T23:36:53.592Z,4.80
2022-09-14T23:38:58.646Z,3.80
2022-09-14T23:41:03.344Z,5.10
2022-09-14T23:43:08.388Z,5.30
2022-09-14T23:45:13.981Z,4.00
2022-09-14T23:47:18.797Z,5.20
2022-09-14T23:49:23.990Z,4.10
2022-09-14T23:51:28.784Z,5.50
2022-09-14T23:53:34.223Z,4.90
2022-09-14T23:55:42.359Z,4.70
2022-09-14T23:57:47.195Z,5.70
2022-09-14T23:59:51.938Z,5.80
